Time;durP1;ratioP1;P1;durP2;ratioP2;P2;SDS_P1;SDS_P2;PMS_P1;PMS_P2;Temp;Humidity;BMP_temperature;BMP_pressure;BME280_temperature;BME280_humidity;BME280_pressure;Samples;Min_cycle;Max_cycle;Signal;HPM_P1;HPM_P2
2023/10/31 00:00:12;;;;;;;0.50;0.25;;;;;;;;;;5048986;28;20041;-59
2023/10/31 00:02:38;;;;;;;0.28;0.28;;;;;;;;;;5044229;28;20057;-60
2023/10/31 00:05:05;;;;;;;0.30;0.30;;;;;;;;;;5048001;28;20163;-59
2023/10/31 00:07:31;;;;;;;0.20;0.20;;;;;;;;;;5043743;28;20028;-59
2023/10/31 00:09:57;;;;;;;0.20;0.20;;;;;;;;;;5046822;28;20398;-60
2023/10/31 00:12:23;;;;;;;0.70;0.35;;;;;;;;;;5048706;28;20504;-59
2023/10/31 00:14:49;;;;;;;0.98;0.30;;;;;;;;;;5046196;28;20041;-59
2023/10/31 00:17:15;;;;;;;0.30;0.30;;;;;;;;;;5048766;28;20029;-60
2023/10/31 00:19:41;;;;;;;0.20;0.20;;;;;;;;;;5047390;28;20049;-59
2023/10/31 00:22:07;;;;;;;0.50;0.35;;;;;;;;;;5049112;28;20055;-60
2023/10/31 00:24:33;;;;;;;0.65;0.50;;;;;;;;;;5048896;28;20052;-60
2023/10/31 00:26:59;;;;;;;0.30;0.30;;;;;;;;;;5046068;28;20411;-60
2023/10/31 00:29:25;;;;;;;0.63;0.45;;;;;;;;;;5048002;28;20041;-59
2023/10/31 00:31:52;;;;;;;0.40;0.30;;;;;;;;;;5040489;28;20104;-59
2023/10/31 00:34:18;;;;;;;0.90;0.20;;;;;;;;;;5045637;28;20040;-60
2023/10/31 00:36:44;;;;;;;1.60;0.30;;;;;;;;;;5045418;28;20029;-59
2023/10/31 00:39:10;;;;;;;0.55;0.25;;;;;;;;;;5041229;28;20434;-60
2023/10/31 00:41:38;;;;;;;0.20;0.20;;;;;;;;;;5047633;28;20064;-60
2023/10/31 00:44:05;;;;;;;0.35;0.35;;;;;;;;;;5046996;28;20041;-60
2023/10/31 00:46:31;;;;;;;0.30;0.30;;;;;;;;;;5049053;28;20033;-60
2023/10/31 00:48:57;;;;;;;0.55;0.30;;;;;;;;;;5044421;28;20052;-59
2023/10/31 00:51:23;;;;;;;0.35;0.20;;;;;;;;;;5048980;28;20040;-60
2023/10/31 00:53:49;;;;;;;0.32;0.30;;;;;;;;;;5046326;28;20532;-60
2023/10/31 00:56:15;;;;;;;1.05;0.43;;;;;;;;;;5044709;28;20060;-59
2023/10/31 00:58:41;;;;;;;0.63;0.30;;;;;;;;;;5047092;28;20044;-59
2023/10/31 01:01:07;;;;;;;0.60;0.40;;;;;;;;;;5046959;28;20040;-59
2023/10/31 01:03:34;;;;;;;0.30;0.30;;;;;;;;;;5043944;28;20051;-59
2023/10/31 01:06:00;;;;;;;0.30;0.30;;;;;;;;;;5047282;28;20064;-59
2023/10/31 01:08:26;;;;;;;2.42;0.40;;;;;;;;;;5046438;28;20056;-59
2023/10/31 01:10:52;;;;;;;0.40;0.40;;;;;;;;;;5045855;28;20033;-59
2023/10/31 01:13:19;;;;;;;1.45;0.50;;;;;;;;;;5045303;28;20041;-59
2023/10/31 01:15:45;;;;;;;0.50;0.43;;;;;;;;;;5045802;28;20405;-59
2023/10/31 01:18:11;;;;;;;0.50;0.40;;;;;;;;;;5027416;28;20375;-59
2023/10/31 01:20:38;;;;;;;0.43;0.40;;;;;;;;;;5046921;28;20048;-59
2023/10/31 01:23:04;;;;;;;0.65;0.40;;;;;;;;;;5045655;28;20041;-59
2023/10/31 01:25:31;;;;;;;0.68;0.43;;;;;;;;;;5041979;28;20037;-59
2023/10/31 01:27:57;;;;;;;0.93;0.60;;;;;;;;;;5039180;28;20549;-59
2023/10/31 01:30:24;;;;;;;0.85;0.50;;;;;;;;;;5046754;28;20111;-59
2023/10/31 01:32:50;;;;;;;0.50;0.50;;;;;;;;;;5045438;28;20044;-60
2023/10/31 01:35:16;;;;;;;0.50;0.40;;;;;;;;;;5048356;28;20037;-58
2023/10/31 01:37:42;;;;;;;0.73;0.43;;;;;;;;;;5046649;28;20036;-59
2023/10/31 01:40:12;;;;;;;1.33;0.82;;;;;;;;;;5046769;28;20053;-60
2023/10/31 01:42:39;;;;;;;1.20;0.60;;;;;;;;;;5046009;28;20037;-59
2023/10/31 01:45:06;;;;;;;1.15;0.40;;;;;;;;;;5044935;28;20047;-60
2023/10/31 01:47:33;;;;;;;1.27;0.50;;;;;;;;;;5046111;28;20048;-59
2023/10/31 01:50:00;;;;;;;0.65;0.50;;;;;;;;;;5044044;28;20064;-59
2023/10/31 01:52:26;;;;;;;1.85;0.93;;;;;;;;;;5045751;28;20504;-59
2023/10/31 01:54:53;;;;;;;0.70;0.55;;;;;;;;;;5045113;28;20037;-59
2023/10/31 01:57:21;;;;;;;1.58;0.50;;;;;;;;;;5046144;28;20029;-59
2023/10/31 01:59:48;;;;;;;0.90;0.65;;;;;;;;;;5042845;28;20036;-59
2023/10/31 02:02:15;;;;;;;0.60;0.60;;;;;;;;;;5045577;28;20498;-59
2023/10/31 02:04:41;;;;;;;1.15;0.50;;;;;;;;;;5043808;28;20048;-59
2023/10/31 02:07:07;;;;;;;1.55;0.60;;;;;;;;;;5046508;28;20430;-58
2023/10/31 02:09:33;;;;;;;0.60;0.60;;;;;;;;;;5044682;28;20039;-58
2023/10/31 02:11:59;;;;;;;0.98;0.77;;;;;;;;;;5044827;28;20041;-58
2023/10/31 02:14:25;;;;;;;1.48;0.55;;;;;;;;;;5044113;28;20052;-58
2023/10/31 02:16:51;;;;;;;0.50;0.50;;;;;;;;;;5043019;28;20040;-58
2023/10/31 02:19:20;;;;;;;0.50;0.50;;;;;;;;;;5040926;28;20124;-59
2023/10/31 02:21:46;;;;;;;1.58;0.50;;;;;;;;;;5041833;28;20402;-58
2023/10/31 02:24:12;;;;;;;1.00;0.63;;;;;;;;;;5045138;28;20029;-59
2023/10/31 02:26:38;;;;;;;0.60;0.60;;;;;;;;;;5040356;28;20056;-58
2023/10/31 02:29:05;;;;;;;0.73;0.60;;;;;;;;;;5042317;28;20041;-58
2023/10/31 02:31:31;;;;;;;0.57;0.57;;;;;;;;;;5042705;28;20029;-60
2023/10/31 02:33:57;;;;;;;1.08;0.60;;;;;;;;;;5046176;28;20516;-59
2023/10/31 02:36:23;;;;;;;1.40;0.60;;;;;;;;;;5047514;28;20036;-59
2023/10/31 02:38:50;;;;;;;2.95;0.77;;;;;;;;;;5041980;28;20041;-59
2023/10/31 02:41:16;;;;;;;0.93;0.70;;;;;;;;;;5038111;28;20045;-59
2023/10/31 02:43:42;;;;;;;1.73;0.65;;;;;;;;;;5044408;28;20033;-59
2023/10/31 02:46:12;;;;;;;2.53;0.68;;;;;;;;;;5046153;28;20241;-58
2023/10/31 02:48:39;;;;;;;0.80;0.70;;;;;;;;;;5044547;28;20060;-59
2023/10/31 02:51:07;;;;;;;0.63;0.50;;;;;;;;;;5043031;28;20037;-59
2023/10/31 02:53:34;;;;;;;1.40;0.47;;;;;;;;;;5044833;28;20045;-59
2023/10/31 02:56:00;;;;;;;2.13;0.60;;;;;;;;;;5048754;28;20501;-58
2023/10/31 02:58:26;;;;;;;1.13;0.80;;;;;;;;;;5044577;28;20045;-58
2023/10/31 03:00:53;;;;;;;1.63;0.55;;;;;;;;;;5050197;28;20047;-58
2023/10/31 03:03:19;;;;;;;0.70;0.70;;;;;;;;;;5049850;28;20049;-59
2023/10/31 03:05:46;;;;;;;1.13;0.65;;;;;;;;;;5046290;28;20506;-59
2023/10/31 03:08:12;;;;;;;1.77;0.68;;;;;;;;;;5046442;28;20049;-59
2023/10/31 03:10:39;;;;;;;1.85;0.70;;;;;;;;;;5050139;28;20044;-59
2023/10/31 03:13:05;;;;;;;0.98;0.85;;;;;;;;;;5048611;28;20053;-59
2023/10/31 03:15:31;;;;;;;1.75;0.73;;;;;;;;;;5049656;28;20041;-58
2023/10/31 03:17:57;;;;;;;1.10;0.60;;;;;;;;;;5047213;28;20053;-58
2023/10/31 03:20:23;;;;;;;3.75;0.85;;;;;;;;;;5044214;28;20040;-58
2023/10/31 03:22:50;;;;;;;3.10;1.00;;;;;;;;;;5044670;28;20052;-59
2023/10/31 03:25:16;;;;;;;1.50;0.90;;;;;;;;;;5049017;28;20037;-59
2023/10/31 03:27:42;;;;;;;2.10;1.08;;;;;;;;;;5045355;28;20044;-59
2023/10/31 03:30:09;;;;;;;2.75;1.35;;;;;;;;;;5048023;28;20033;-59
2023/10/31 03:32:35;;;;;;;5.35;2.45;;;;;;;;;;5050905;28;20417;-58
2023/10/31 03:35:01;;;;;;;2.08;0.95;;;;;;;;;;5049190;28;20044;-59
2023/10/31 03:37:27;;;;;;;1.45;1.00;;;;;;;;;;5049895;28;20029;-58
2023/10/31 03:39:53;;;;;;;1.33;0.60;;;;;;;;;;5048294;28;20052;-59
2023/10/31 03:42:19;;;;;;;2.30;0.60;;;;;;;;;;5049841;28;20037;-58
2023/10/31 03:44:45;;;;;;;0.70;0.60;;;;;;;;;;5048085;28;20033;-58
2023/10/31 03:47:13;;;;;;;1.30;0.60;;;;;;;;;;5046206;28;20041;-59
2023/10/31 03:49:40;;;;;;;0.90;0.65;;;;;;;;;;5048493;28;20049;-59
2023/10/31 03:52:06;;;;;;;1.13;0.60;;;;;;;;;;5047963;28;20052;-60
2023/10/31 03:54:32;;;;;;;0.95;0.60;;;;;;;;;;5048603;28;20409;-59
2023/10/31 03:56:59;;;;;;;0.63;0.35;;;;;;;;;;5047823;28;20049;-59
2023/10/31 03:59:25;;;;;;;0.47;0.40;;;;;;;;;;5048460;28;20051;-58
2023/10/31 04:01:51;;;;;;;1.15;0.38;;;;;;;;;;5047767;28;20525;-58
2023/10/31 04:04:17;;;;;;;1.08;0.30;;;;;;;;;;5048368;28;20045;-59
2023/10/31 04:06:43;;;;;;;0.50;0.50;;;;;;;;;;5039960;28;20041;-58
2023/10/31 04:09:10;;;;;;;2.50;0.55;;;;;;;;;;5042756;28;20448;-58
2023/10/31 04:11:36;;;;;;;0.57;0.50;;;;;;;;;;5048518;28;20036;-59
2023/10/31 04:14:03;;;;;;;0.50;0.50;;;;;;;;;;5047872;28;20045;-59
2023/10/31 04:16:30;;;;;;;0.70;0.63;;;;;;;;;;5049703;28;20421;-59
2023/10/31 04:18:56;;;;;;;0.98;0.60;;;;;;;;;;5046209;28;20040;-59
2023/10/31 04:21:22;;;;;;;0.47;0.40;;;;;;;;;;5049407;28;20028;-59
2023/10/31 04:23:48;;;;;;;0.70;0.70;;;;;;;;;;5046306;28;20025;-58
2023/10/31 04:26:15;;;;;;;1.02;0.70;;;;;;;;;;5048990;28;20048;-58
2023/10/31 04:28:41;;;;;;;0.68;0.68;;;;;;;;;;5048046;28;20033;-59
2023/10/31 04:31:07;;;;;;;0.60;0.60;;;;;;;;;;5048476;28;20059;-59
2023/10/31 04:33:33;;;;;;;0.85;0.60;;;;;;;;;;5042104;28;20056;-59
2023/10/31 04:36:02;;;;;;;0.82;0.65;;;;;;;;;;5047199;28;20569;-58
2023/10/31 04:38:28;;;;;;;1.08;0.70;;;;;;;;;;5046925;28;20024;-59
2023/10/31 04:40:54;;;;;;;1.42;0.50;;;;;;;;;;5044100;28;20041;-59
2023/10/31 04:43:20;;;;;;;0.60;0.60;;;;;;;;;;5047633;28;20029;-58
2023/10/31 04:45:46;;;;;;;2.35;1.30;;;;;;;;;;5043806;28;20060;-59
2023/10/31 04:48:13;;;;;;;1.08;0.80;;;;;;;;;;5041480;28;20044;-59
2023/10/31 04:50:39;;;;;;;0.82;0.50;;;;;;;;;;5042933;28;20410;-58
2023/10/31 04:53:07;;;;;;;0.70;0.60;;;;;;;;;;5043834;28;20041;-58
2023/10/31 04:55:33;;;;;;;0.60;0.50;;;;;;;;;;5041139;28;20028;-59
2023/10/31 04:57:59;;;;;;;0.60;0.60;;;;;;;;;;5045164;28;20060;-58
2023/10/31 05:00:25;;;;;;;1.45;0.50;;;;;;;;;;5045430;28;20045;-59
2023/10/31 05:02:51;;;;;;;0.50;0.50;;;;;;;;;;5042835;28;20498;-59
2023/10/31 05:05:17;;;;;;;1.55;0.40;;;;;;;;;;5038193;28;20049;-59
2023/10/31 05:07:43;;;;;;;1.50;0.60;;;;;;;;;;5037665;28;20406;-58
2023/10/31 05:10:09;;;;;;;0.38;0.38;;;;;;;;;;5041235;28;20071;-58
2023/10/31 05:12:36;;;;;;;0.90;0.40;;;;;;;;;;5035943;28;20037;-59
2023/10/31 05:15:02;;;;;;;1.23;0.50;;;;;;;;;;5036483;28;20048;-58
2023/10/31 05:17:28;;;;;;;3.67;1.27;;;;;;;;;;5035552;28;20049;-58
2023/10/31 05:19:54;;;;;;;0.80;0.63;;;;;;;;;;5041374;28;20041;-58
2023/10/31 05:22:20;;;;;;;1.65;0.55;;;;;;;;;;5042542;28;20060;-59
2023/10/31 05:24:46;;;;;;;0.50;0.50;;;;;;;;;;5045305;28;20040;-58
2023/10/31 05:27:14;;;;;;;0.30;0.30;;;;;;;;;;5031195;28;20041;-58
2023/10/31 05:29:40;;;;;;;0.70;0.43;;;;;;;;;;5038528;28;20060;-58
2023/10/31 05:32:06;;;;;;;0.82;0.50;;;;;;;;;;5044993;28;20060;-59
2023/10/31 05:34:32;;;;;;;1.25;0.52;;;;;;;;;;5047412;28;20413;-58
2023/10/31 05:36:58;;;;;;;0.85;0.50;;;;;;;;;;5047370;28;20033;-58
2023/10/31 05:39:24;;;;;;;1.52;0.80;;;;;;;;;;5046495;28;20045;-58
2023/10/31 05:41:50;;;;;;;0.85;0.60;;;;;;;;;;5048147;28;20056;-58
2023/10/31 05:44:16;;;;;;;0.73;0.60;;;;;;;;;;5042882;28;20426;-59
2023/10/31 05:46:43;;;;;;;2.35;0.60;;;;;;;;;;5047776;28;20513;-59
2023/10/31 05:49:10;;;;;;;0.75;0.52;;;;;;;;;;5044427;28;20063;-58
2023/10/31 05:51:36;;;;;;;1.38;0.50;;;;;;;;;;5042846;28;20054;-58
2023/10/31 05:54:02;;;;;;;0.57;0.45;;;;;;;;;;5045465;28;20028;-58
2023/10/31 05:56:28;;;;;;;1.08;0.57;;;;;;;;;;5043818;28;20383;-58
2023/10/31 05:58:54;;;;;;;1.60;0.80;;;;;;;;;;5045361;28;20033;-58
2023/10/31 06:01:20;;;;;;;1.02;0.60;;;;;;;;;;5047764;28;20037;-59
2023/10/31 06:03:46;;;;;;;0.75;0.52;;;;;;;;;;5047924;28;20048;-58
2023/10/31 06:06:12;;;;;;;0.95;0.55;;;;;;;;;;5046919;28;20048;-58
2023/10/31 06:08:39;;;;;;;2.25;0.63;;;;;;;;;;5045657;28;20041;-58
2023/10/31 06:11:06;;;;;;;0.90;0.70;;;;;;;;;;5046690;28;20064;-58
2023/10/31 06:13:33;;;;;;;1.58;0.52;;;;;;;;;;5046714;28;20083;-59
2023/10/31 06:16:00;;;;;;;1.38;0.50;;;;;;;;;;5046691;28;20049;-58
2023/10/31 06:18:27;;;;;;;1.55;0.40;;;;;;;;;;5046673;28;20037;-59
2023/10/31 06:20:53;;;;;;;0.65;0.60;;;;;;;;;;5046885;28;20029;-58
2023/10/31 06:23:19;;;;;;;0.75;0.50;;;;;;;;;;5047074;28;20060;-59
2023/10/31 06:25:46;;;;;;;3.10;0.60;;;;;;;;;;5046126;28;20040;-59
2023/10/31 06:28:12;;;;;;;3.35;0.75;;;;;;;;;;5044774;28;20040;-59
2023/10/31 06:30:38;;;;;;;0.68;0.50;;;;;;;;;;5044940;28;20053;-59
2023/10/31 06:33:04;;;;;;;0.90;0.50;;;;;;;;;;5049317;28;20053;-59
2023/10/31 06:35:30;;;;;;;0.40;0.40;;;;;;;;;;5051838;28;20509;-59
2023/10/31 06:37:56;;;;;;;1.40;0.50;;;;;;;;;;5049413;28;20041;-59
2023/10/31 06:40:24;;;;;;;0.70;0.50;;;;;;;;;;5051334;28;20060;-58
2023/10/31 06:42:51;;;;;;;0.77;0.60;;;;;;;;;;5050831;28;20040;-59
2023/10/31 06:45:17;;;;;;;1.63;0.60;;;;;;;;;;5050962;28;20060;-59
2023/10/31 06:47:43;;;;;;;2.10;0.50;;;;;;;;;;5050184;28;20037;-59
2023/10/31 06:50:09;;;;;;;1.58;0.52;;;;;;;;;;5050037;28;20055;-58
2023/10/31 06:52:35;;;;;;;0.77;0.57;;;;;;;;;;5045606;28;20049;-58
2023/10/31 06:55:02;;;;;;;4.00;0.80;;;;;;;;;;5048042;28;20433;-59
2023/10/31 06:57:28;;;;;;;0.82;0.60;;;;;;;;;;5050051;28;20047;-58
2023/10/31 06:59:55;;;;;;;1.23;0.70;;;;;;;;;;5049167;28;20060;-58
2023/10/31 07:02:21;;;;;;;0.77;0.77;;;;;;;;;;5051126;28;20060;-58
2023/10/31 07:04:47;;;;;;;1.33;0.73;;;;;;;;;;5050199;28;20057;-58
2023/10/31 07:07:13;;;;;;;1.00;0.93;;;;;;;;;;5047894;28;20029;-58
2023/10/31 07:09:39;;;;;;;1.73;0.90;;;;;;;;;;5044455;28;20048;-60
2023/10/31 07:12:06;;;;;;;1.20;0.68;;;;;;;;;;5045184;28;20037;-58
2023/10/31 07:14:32;;;;;;;2.25;0.70;;;;;;;;;;5050093;28;20033;-58
2023/10/31 07:16:58;;;;;;;0.70;0.70;;;;;;;;;;5042855;28;20040;-59
2023/10/31 07:19:24;;;;;;;1.20;0.77;;;;;;;;;;5049145;28;20060;-59
2023/10/31 07:21:50;;;;;;;2.20;0.80;;;;;;;;;;5044062;28;20028;-59
2023/10/31 07:24:16;;;;;;;2.15;0.70;;;;;;;;;;5045805;28;20041;-58
2023/10/31 07:26:43;;;;;;;1.95;0.60;;;;;;;;;;5046649;28;20049;-58
2023/10/31 07:29:09;;;;;;;0.98;0.60;;;;;;;;;;5047755;28;20401;-58
2023/10/31 07:31:38;;;;;;;1.40;0.57;;;;;;;;;;5050267;28;20401;-59
2023/10/31 07:34:08;;;;;;;4.85;1.00;;;;;;;;;;5042922;28;20391;-59
2023/10/31 07:36:34;;;;;;;1.10;0.80;;;;;;;;;;5048979;28;20045;-59
2023/10/31 07:39:02;;;;;;;1.20;0.70;;;;;;;;;;5042633;28;20032;-59
2023/10/31 07:41:28;;;;;;;1.15;0.70;;;;;;;;;;5047366;28;20068;-60
2023/10/31 07:43:54;;;;;;;3.60;0.90;;;;;;;;;;5049915;28;20029;-59
2023/10/31 07:46:21;;;;;;;4.57;1.05;;;;;;;;;;5049629;28;20052;-59
2023/10/31 07:48:47;;;;;;;1.75;0.90;;;;;;;;;;5048455;28;20044;-59
2023/10/31 07:51:13;;;;;;;1.98;0.90;;;;;;;;;;5049297;28;20033;-59
2023/10/31 07:53:39;;;;;;;3.30;1.00;;;;;;;;;;5049512;28;20049;-59
2023/10/31 07:56:13;;;;;;;2.40;0.98;;;;;;;;;;5048552;28;20045;-59
2023/10/31 07:58:39;;;;;;;2.15;1.15;;;;;;;;;;5048293;28;20052;-59
2023/10/31 08:01:10;;;;;;;2.80;0.77;;;;;;;;;;5048497;28;20055;-59
2023/10/31 08:03:37;;;;;;;1.25;0.85;;;;;;;;;;5049043;28;20036;-60
2023/10/31 08:06:05;;;;;;;4.35;0.80;;;;;;;;;;5049082;28;20049;-60
2023/10/31 08:08:31;;;;;;;3.13;0.90;;;;;;;;;;5048142;28;20028;-59
2023/10/31 08:10:58;;;;;;;2.47;0.98;;;;;;;;;;5045858;28;20041;-59
2023/10/31 08:13:24;;;;;;;0.93;0.60;;;;;;;;;;5048560;28;20044;-59
2023/10/31 08:15:51;;;;;;;2.75;0.77;;;;;;;;;;5044627;28;20046;-59
2023/10/31 08:18:17;;;;;;;0.50;0.43;;;;;;;;;;5046456;28;20052;-59
2023/10/31 08:20:46;;;;;;;1.98;0.77;;;;;;;;;;5049467;28;20045;-59
2023/10/31 08:23:12;;;;;;;1.58;0.73;;;;;;;;;;5048053;28;20029;-59
2023/10/31 08:25:38;;;;;;;1.40;0.80;;;;;;;;;;5048859;28;20044;-59
2023/10/31 08:28:04;;;;;;;1.00;0.80;;;;;;;;;;5046583;28;20040;-60
2023/10/31 08:30:30;;;;;;;1.88;0.70;;;;;;;;;;5045416;28;20051;-59
2023/10/31 08:32:56;;;;;;;2.38;1.00;;;;;;;;;;5048638;28;20060;-59
2023/10/31 08:35:22;;;;;;;9.68;6.75;;;;;;;;;;5049177;28;20037;-59
2023/10/31 08:37:48;;;;;;;2.47;1.55;;;;;;;;;;5045662;28;20044;-59
2023/10/31 08:40:14;;;;;;;1.70;0.98;;;;;;;;;;5044329;28;20036;-59
2023/10/31 08:42:41;;;;;;;3.88;1.30;;;;;;;;;;5043960;28;20651;-58
2023/10/31 08:45:08;;;;;;;2.58;1.10;;;;;;;;;;5047252;28;20049;-58
2023/10/31 08:47:34;;;;;;;5.32;1.80;;;;;;;;;;5048381;28;20612;-59
2023/10/31 08:50:03;;;;;;;2.58;1.30;;;;;;;;;;5047444;28;20430;-59
2023/10/31 08:52:29;;;;;;;10.02;4.70;;;;;;;;;;5048154;28;20041;-59
2023/10/31 08:54:55;;;;;;;1.25;0.70;;;;;;;;;;5048552;28;20409;-59
2023/10/31 08:57:22;;;;;;;2.22;0.93;;;;;;;;;;5047601;28;20041;-59
2023/10/31 08:59:48;;;;;;;3.40;0.90;;;;;;;;;;5046604;28;20045;-59
2023/10/31 09:02:15;;;;;;;2.55;1.02;;;;;;;;;;5047952;28;20131;-59
2023/10/31 09:04:41;;;;;;;2.97;0.90;;;;;;;;;;5048686;28;20052;-59
2023/10/31 09:07:07;;;;;;;12.55;4.50;;;;;;;;;;5047897;28;20029;-60
2023/10/31 09:09:33;;;;;;;13.60;5.68;;;;;;;;;;5046856;28;20048;-60
2023/10/31 09:11:59;;;;;;;3.72;1.70;;;;;;;;;;5047401;28;20036;-58
2023/10/31 09:14:25;;;;;;;2.55;0.90;;;;;;;;;;5048404;28;20037;-59
2023/10/31 09:16:51;;;;;;;4.70;1.20;;;;;;;;;;5048270;28;20506;-59
2023/10/31 09:19:17;;;;;;;1.88;0.90;;;;;;;;;;5045340;28;20037;-59
2023/10/31 09:21:43;;;;;;;3.13;0.80;;;;;;;;;;5048345;28;20051;-59
2023/10/31 09:24:10;;;;;;;6.68;2.28;;;;;;;;;;5046319;28;20397;-59
2023/10/31 09:26:37;;;;;;;4.32;1.10;;;;;;;;;;5048441;28;20497;-59
2023/10/31 09:29:03;;;;;;;18.30;8.85;;;;;;;;;;5044580;28;20060;-60
2023/10/31 09:31:29;;;;;;;5.75;2.30;;;;;;;;;;5047351;28;20049;-58
2023/10/31 09:33:55;;;;;;;3.50;1.00;;;;;;;;;;5048265;28;20057;-59
2023/10/31 09:36:21;;;;;;;1.50;0.80;;;;;;;;;;5043495;28;20029;-59
2023/10/31 09:38:47;;;;;;;6.00;2.88;;;;;;;;;;5043182;28;20041;-59
2023/10/31 09:41:14;;;;;;;2.95;1.05;;;;;;;;;;5046511;28;20045;-59
2023/10/31 09:43:41;;;;;;;3.95;1.40;;;;;;;;;;5041273;28;20040;-59
2023/10/31 09:46:09;;;;;;;3.10;1.58;;;;;;;;;;5046097;28;20091;-59
2023/10/31 09:48:36;;;;;;;2.03;0.77;;;;;;;;;;5043685;28;20040;-59
2023/10/31 09:51:02;;;;;;;3.50;1.33;;;;;;;;;;5047150;28;20063;-59
2023/10/31 09:53:30;;;;;;;3.35;0.70;;;;;;;;;;5047737;28;20402;-59
2023/10/31 09:55:57;;;;;;;3.97;0.90;;;;;;;;;;5047908;28;20054;-59
2023/10/31 09:58:23;;;;;;;2.20;0.98;;;;;;;;;;5044498;28;20044;-60
2023/10/31 10:00:49;;;;;;;2.25;0.98;;;;;;;;;;5046308;28;20033;-60
2023/10/31 10:03:16;;;;;;;4.03;1.10;;;;;;;;;;5046745;28;20047;-59
2023/10/31 10:05:45;;;;;;;4.97;0.98;;;;;;;;;;5048020;28;20037;-59
2023/10/31 10:08:11;;;;;;;3.65;0.73;;;;;;;;;;5045208;28;20041;-60
2023/10/31 10:10:37;;;;;;;1.33;0.63;;;;;;;;;;5048024;28;20045;-58
2023/10/31 10:13:04;;;;;;;2.50;1.30;;;;;;;;;;5045935;28;20032;-59
2023/10/31 10:15:30;;;;;;;2.20;0.75;;;;;;;;;;5047825;28;20029;-59
2023/10/31 10:17:56;;;;;;;4.15;1.73;;;;;;;;;;5046673;28;20045;-60
2023/10/31 10:20:22;;;;;;;4.40;1.13;;;;;;;;;;5046553;28;20051;-59
2023/10/31 10:22:48;;;;;;;3.75;1.42;;;;;;;;;;5047375;28;20025;-60
2023/10/31 10:25:16;;;;;;;8.65;4.15;;;;;;;;;;5046955;28;20036;-59
2023/10/31 10:27:44;;;;;;;4.22;1.45;;;;;;;;;;5046229;28;20410;-60
2023/10/31 10:30:12;;;;;;;5.47;1.88;;;;;;;;;;5046269;28;20047;-59
2023/10/31 10:32:38;;;;;;;2.20;0.90;;;;;;;;;;5046809;28;20056;-60
2023/10/31 10:35:06;;;;;;;2.42;0.90;;;;;;;;;;5045821;28;20045;-58
2023/10/31 10:37:33;;;;;;;4.93;1.02;;;;;;;;;;5046429;28;20032;-59
2023/10/31 10:40:00;;;;;;;2.95;0.80;;;;;;;;;;5045808;28;20049;-58
2023/10/31 10:42:33;;;;;;;5.22;1.13;;;;;;;;;;5040209;28;20029;-59
2023/10/31 10:45:03;;;;;;;2.22;0.90;;;;;;;;;;5044904;28;20049;-59
2023/10/31 10:47:32;;;;;;;3.33;1.00;;;;;;;;;;5041571;28;20045;-59
2023/10/31 10:50:02;;;;;;;4.50;1.42;;;;;;;;;;5046107;28;20048;-59
2023/10/31 10:52:35;;;;;;;4.90;1.23;;;;;;;;;;5038601;28;20040;-59
2023/10/31 10:55:25;;;;;;;5.03;3.05;;;;;;;;;;5043821;28;20045;-58
2023/10/31 10:58:03;;;;;;;4.85;2.67;;;;;;;;;;5038118;28;20395;-58
2023/10/31 11:00:29;;;;;;;7.82;6.80;;;;;;;;;;5047003;28;20036;-59
2023/10/31 11:02:56;;;;;;;27.02;9.00;;;;;;;;;;5046774;28;20041;-58
2023/10/31 11:05:26;;;;;;;16.40;6.20;;;;;;;;;;5040862;28;20044;-60
2023/10/31 11:07:55;;;;;;;1.92;0.95;;;;;;;;;;5045331;28;20076;-58
2023/10/31 11:10:21;;;;;;;1.80;0.90;;;;;;;;;;5044489;28;20544;-59
2023/10/31 11:12:47;;;;;;;1.75;0.73;;;;;;;;;;5046744;28;20044;-58
2023/10/31 11:15:15;;;;;;;5.75;0.90;;;;;;;;;;5042987;28;20053;-58
2023/10/31 11:17:45;;;;;;;4.03;0.98;;;;;;;;;;5044891;28;20022;-59
2023/10/31 11:20:14;;;;;;;;;;;;;;;;;;5049033;28;20057;-59
2023/10/31 11:22:45;;;;;;;4.40;2.40;;;;;;;;;;5050761;28;19913;-59
2023/10/31 11:25:20;;;;;;;1.83;1.27;;;;;;;;;;5050207;28;21582;-59
2023/10/31 11:27:46;;;;;;;2.45;0.98;;;;;;;;;;5049076;28;20158;-59
2023/10/31 11:30:29;;;;;;;2.38;0.55;;;;;;;;;;5049443;28;20040;-59
2023/10/31 11:32:58;;;;;;;1.40;0.85;;;;;;;;;;5050595;28;20057;-59
2023/10/31 11:35:25;;;;;;;3.13;1.00;;;;;;;;;;5048632;28;20505;-59
2023/10/31 11:38:08;;;;;;;2.38;0.60;;;;;;;;;;5048469;28;20884;-59
2023/10/31 11:40:36;;;;;;;3.35;0.75;;;;;;;;;;5044236;28;20040;-59
2023/10/31 11:43:05;;;;;;;1.88;0.57;;;;;;;;;;5044723;28;20041;-59
2023/10/31 11:45:44;;;;;;;1.92;0.90;;;;;;;;;;5048597;28;20069;-59
2023/10/31 11:48:10;;;;;;;4.13;0.90;;;;;;;;;;5046266;28;20056;-59
2023/10/31 11:50:37;;;;;;;2.83;0.93;;;;;;;;;;5050274;28;20040;-59
2023/10/31 11:53:11;;;;;;;4.93;0.80;;;;;;;;;;5046765;28;20053;-58
2023/10/31 11:55:43;;;;;;;3.20;1.83;;;;;;;;;;5050192;28;20063;-58
2023/10/31 11:58:25;;;;;;;1.67;0.85;;;;;;;;;;5047431;28;20045;-60
2023/10/31 12:00:53;;;;;;;1.13;0.90;;;;;;;;;;5046817;28;20036;-58
2023/10/31 12:03:21;;;;;;;11.75;3.55;;;;;;;;;;5041487;28;20032;-59
2023/10/31 12:06:03;;;;;;;20.20;5.30;;;;;;;;;;5043682;28;20037;-59
2023/10/31 12:08:30;;;;;;;8.45;2.30;;;;;;;;;;5048334;28;20033;-59
2023/10/31 12:11:09;;;;;;;9.40;4.18;;;;;;;;;;5049759;28;20037;-59
2023/10/31 12:13:37;;;;;;;18.27;7.65;;;;;;;;;;5044117;28;20041;-59
2023/10/31 12:16:05;;;;;;;23.60;8.15;;;;;;;;;;5044712;28;20034;-59
2023/10/31 12:18:36;;;;;;;14.07;5.33;;;;;;;;;;5047272;28;20056;-58
2023/10/31 12:21:03;;;;;;;2.08;0.80;;;;;;;;;;5049292;28;20422;-59
2023/10/31 12:23:29;;;;;;;1.60;0.80;;;;;;;;;;5049151;28;20422;-59
2023/10/31 12:25:56;;;;;;;16.25;7.68;;;;;;;;;;5045767;28;20061;-59
2023/10/31 12:28:24;;;;;;;3.95;1.70;;;;;;;;;;5044235;28;20509;-59
2023/10/31 12:30:56;;;;;;;3.35;1.42;;;;;;;;;;5047410;28;20395;-59
2023/10/31 12:33:25;;;;;;;2.13;0.65;;;;;;;;;;5045976;28;20396;-59
2023/10/31 12:35:56;;;;;;;1.13;0.60;;;;;;;;;;5049362;28;20426;-59
2023/10/31 12:38:22;;;;;;;3.83;1.17;;;;;;;;;;5045397;28;20046;-58
2023/10/31 12:40:49;;;;;;;3.83;2.30;;;;;;;;;;5048969;28;20033;-59
2023/10/31 12:43:16;;;;;;;7.20;3.13;;;;;;;;;;5042869;28;20053;-59
2023/10/31 12:45:42;;;;;;;2.33;0.80;;;;;;;;;;5046226;28;20044;-58
2023/10/31 12:48:09;;;;;;;1.45;0.80;;;;;;;;;;5043618;28;20041;-58
2023/10/31 12:50:37;;;;;;;4.70;0.90;;;;;;;;;;5044453;28;20041;-59
2023/10/31 12:53:04;;;;;;;4.53;0.95;;;;;;;;;;5048344;28;20057;-59
2023/10/31 12:55:36;;;;;;;1.42;0.70;;;;;;;;;;5042370;28;20033;-58
2023/10/31 12:58:03;;;;;;;3.25;1.27;;;;;;;;;;5044702;28;20045;-58
2023/10/31 13:00:34;;;;;;;66.82;18.00;;;;;;;;;;5046217;28;20029;-59
2023/10/31 13:03:04;;;;;;;92.55;26.80;;;;;;;;;;5046945;28;20060;-58
2023/10/31 13:05:30;;;;;;;7.40;2.92;;;;;;;;;;5044463;28;20498;-59
2023/10/31 13:07:57;;;;;;;24.25;7.38;;;;;;;;;;5042631;28;20502;-59
2023/10/31 13:10:24;;;;;;;12.10;3.92;;;;;;;;;;5047161;28;20045;-60
2023/10/31 13:12:51;;;;;;;7.68;2.90;;;;;;;;;;5044028;28;20029;-59
2023/10/31 13:15:19;;;;;;;11.07;3.65;;;;;;;;;;5044566;28;20045;-60
2023/10/31 13:17:46;;;;;;;74.68;19.73;;;;;;;;;;5047278;28;20029;-60
2023/10/31 13:20:13;;;;;;;12.05;3.95;;;;;;;;;;5046433;28;20056;-60
2023/10/31 13:22:41;;;;;;;11.00;3.00;;;;;;;;;;5045743;28;20029;-59
2023/10/31 13:25:12;;;;;;;6.50;3.13;;;;;;;;;;5047111;28;20084;-59
2023/10/31 13:27:43;;;;;;;43.22;12.45;;;;;;;;;;5045067;28;20037;-58
2023/10/31 13:30:13;;;;;;;13.05;3.80;;;;;;;;;;5043438;28;20517;-59
2023/10/31 13:32:42;;;;;;;59.53;16.67;;;;;;;;;;5046899;28;20037;-58
2023/10/31 13:35:13;;;;;;;61.28;17.13;;;;;;;;;;5045699;28;20061;-57
2023/10/31 13:37:40;;;;;;;95.72;22.92;;;;;;;;;;5044934;28;20391;-59
2023/10/31 13:40:11;;;;;;;60.13;14.98;;;;;;;;;;5043401;28;20118;-59
2023/10/31 13:42:37;;;;;;;44.95;10.48;;;;;;;;;;5047689;28;20029;-59
2023/10/31 13:45:04;;;;;;;23.73;5.47;;;;;;;;;;5046604;28;20060;-59
2023/10/31 13:47:30;;;;;;;30.02;7.53;;;;;;;;;;5046800;28;20045;-60
2023/10/31 13:49:56;;;;;;;75.93;17.77;;;;;;;;;;5046804;28;20502;-59
2023/10/31 13:52:23;;;;;;;27.58;6.97;;;;;;;;;;5047212;28;20033;-60
2023/10/31 13:54:49;;;;;;;15.07;4.57;;;;;;;;;;5047543;28;20059;-59
2023/10/31 13:57:15;;;;;;;29.75;6.53;;;;;;;;;;5046785;28;20075;-59
2023/10/31 13:59:41;;;;;;;26.08;5.38;;;;;;;;;;5046668;28;20037;-59
2023/10/31 14:02:07;;;;;;;17.25;6.05;;;;;;;;;;5045817;28;20064;-60
2023/10/31 14:04:34;;;;;;;10.45;3.78;;;;;;;;;;5041219;28;20028;-60
2023/10/31 14:07:00;;;;;;;4.95;1.90;;;;;;;;;;5047800;28;20059;-59
2023/10/31 14:09:26;;;;;;;6.35;2.17;;;;;;;;;;5045450;28;20103;-59
2023/10/31 14:11:52;;;;;;;6.90;1.85;;;;;;;;;;5041393;28;20052;-60
2023/10/31 14:14:19;;;;;;;10.82;2.03;;;;;;;;;;5046470;28;20036;-60
2023/10/31 14:16:46;;;;;;;5.28;1.98;;;;;;;;;;5047728;28;20048;-59
2023/10/31 14:19:13;;;;;;;4.47;2.00;;;;;;;;;;5044284;28;20037;-59
2023/10/31 14:21:40;;;;;;;8.40;2.20;;;;;;;;;;5044345;28;20048;-60
2023/10/31 14:24:06;;;;;;;5.57;1.90;;;;;;;;;;5045189;28;20060;-60
2023/10/31 14:26:38;;;;;;;3.70;2.00;;;;;;;;;;5046095;28;20025;-59
2023/10/31 14:29:04;;;;;;;4.22;2.10;;;;;;;;;;5044204;28;20049;-60
2023/10/31 14:31:30;;;;;;;5.90;2.60;;;;;;;;;;5046825;28;20041;-60
2023/10/31 14:33:57;;;;;;;12.30;3.17;;;;;;;;;;5043952;28;20060;-59
2023/10/31 14:36:23;;;;;;;12.80;3.35;;;;;;;;;;5042693;28;20569;-59
2023/10/31 14:38:49;;;;;;;9.85;2.65;;;;;;;;;;5045736;28;20041;-59